Jp Tsubaki — JD2817 — position and weather

sailwx.info

Track history (hours):
 
Tides and Currents Weather Stations Pressure Air Temp Water Temp Dewpoint Dewpoint Depression Visibility Wind Speed Wind Dir Waves Ship Positions

Jp Tsubaki

Last reported at 2016-Feb-13 16:31 UTC. Time now 2016-Feb-13 17:13 UTC.
Position N 35°31' E 139°55'.

Length 115 m; draft 6.4 m.

Type: Cargo ship. MMSI: 431000734.

Date/timePositionNaut miles runAvg speedWind from/ knotsBaromVisibWave heightAir tempDewpointWater temp
2016-Feb-13 16:31N 35°31' E 139°55'0 0.0
2016-Feb-13 15:28N 35°31' E 139°55'0 0.0
2016-Feb-13 14:32N 35°31' E 139°55'0 0.0
2016-Feb-13 13:32N 35°31' E 139°55'0 0.0
2016-Feb-13 12:33N 35°31' E 139°55'1 1.3
2016-Feb-13 11:33N 35°30' E 139°54'1212.0
2016-Feb-13 10:33N 35°24' E 139°42'1 1.4
2016-Feb-13 09:32N 35°24' E 139°40'0 0.0
2016-Feb-13 08:32N 35°24' E 139°40'0 0.0
2016-Feb-13 07:29N 35°24' E 139°40'0 0.0
2016-Feb-13 06:32N 35°24' E 139°40'0 0.0
2016-Feb-13 05:32N 35°24' E 139°40'0 0.1
2016-Feb-13 04:33N 35°24' E 139°40'1 1.2
2016-Feb-13 03:32N 35°24' E 139°39'0 0.0
2016-Feb-13 02:32N 35°24' E 139°39'0 0.0
2016-Feb-13 01:32N 35°24' E 139°39'0 0.0
2016-Feb-13 00:32N 35°24' E 139°39'0 0.0
2016-Feb-12 23:32N 35°24' E 139°39'0 0.0
2016-Feb-12 22:32N 35°24' E 139°39'0 0.0
2016-Feb-12 21:32N 35°24' E 139°39'0 0.0
2016-Feb-12 20:32N 35°24' E 139°39'0 0.0
2016-Feb-12 19:32N 35°24' E 139°39'0 0.0
2016-Feb-12 18:32N 35°24' E 139°39'0 0.0
2016-Feb-12 17:32N 35°24' E 139°39'0 0.0
2016-Feb-12 16:32N 35°24' E 139°39'0 0.0
2016-Feb-12 15:29N 35°24' E 139°39'0 0.0
2016-Feb-12 14:32N 35°24' E 139°39'0 0.0
2016-Feb-12 13:32N 35°24' E 139°39'0 0.0
2016-Feb-12 12:29N 35°24' E 139°39'0 0.0
2016-Feb-12 11:32N 35°24' E 139°39'0 0.0
2016-Feb-12 10:32N 35°24' E 139°39'0 0.0
2016-Feb-12 09:32N 35°24' E 139°39'0 0.0
2016-Feb-12 08:32N 35°24' E 139°39'0 0.0
2016-Feb-12 07:32N 35°24' E 139°39'0 0.0
2016-Feb-12 06:32N 35°24' E 139°39'0 0.0
2016-Feb-12 05:33N 35°24' E 139°39'1 0.8
2016-Feb-12 04:34N 35°24' E 139°39'1 0.7
2016-Feb-12 03:33N 35°24' E 139°40'0 0.0
2016-Feb-12 02:33N 35°24' E 139°40'0 0.0
2016-Feb-12 01:33N 35°24' E 139°40'0 0.0
2016-Feb-12 00:33N 35°24' E 139°40'0 0.0
2016-Feb-11 23:33N 35°24' E 139°40'0 0.0
2016-Feb-11 22:33N 35°24' E 139°40'2 2.0
2016-Feb-11 21:33N 35°23' E 139°42'2 2.0
2016-Feb-11 20:31N 35°23' E 139°45'0 0.1
2016-Feb-11 19:31N 35°23' E 139°45'0 0.1
2016-Feb-11 18:31N 35°23' E 139°45'0 0.0
2016-Feb-11 17:31N 35°23' E 139°45'0 0.0
2016-Feb-11 16:31N 35°23' E 139°45'0 0.0
2016-Feb-11 15:31N 35°23' E 139°45'0 0.0
2016-Feb-11 14:31N 35°23' E 139°45'0 0.0
2016-Feb-11 13:31N 35°23' E 139°45'5 5.3
2016-Feb-11 12:32N 35°24' E 139°39'0 0.0
2016-Feb-11 11:32N 35°24' E 139°39'0 0.0
2016-Feb-11 10:32N 35°24' E 139°39'0 0.0
2016-Feb-11 09:32N 35°24' E 139°39'0 0.0
2016-Feb-11 08:32N 35°24' E 139°39'0 0.0
2016-Feb-11 07:29N 35°24' E 139°39'0 0.0
2016-Feb-11 06:33N 35°24' E 139°39'7 7.2
2016-Feb-11 05:33N 35°27' E 139°46'4 3.5
2016-Feb-11 04:33N 35°30' E 139°43'0 0.0
2016-Feb-11 03:33N 35°30' E 139°43'0 0.0
2016-Feb-11 02:33N 35°30' E 139°43'0 0.0
2016-Feb-11 01:33N 35°30' E 139°43'0 0.0
2016-Feb-11 00:33N 35°30' E 139°43'0 0.0
2016-Feb-10 23:33N 35°30' E 139°43'0 0.0
2016-Feb-10 22:33N 35°30' E 139°43'5 5.2
2016-Feb-10 21:34N 35°25' E 139°44'2 2.0
2016-Feb-10 20:32N 35°23' E 139°44'0 0.0
2016-Feb-10 19:33N 35°23' E 139°44'0 0.0
2016-Feb-10 18:33N 35°23' E 139°44'0 0.0
2016-Feb-10 17:32N 35°23' E 139°44'0 0.0
2016-Feb-10 16:33N 35°23' E 139°44'0 0.0
2016-Feb-10 15:32N 35°23' E 139°44'0 0.0
2016-Feb-10 14:32N 35°23' E 139°44'0 0.0
2016-Feb-10 13:33N 35°23' E 139°44'4 4.5
2016-Feb-10 12:33N 35°24' E 139°39'0 0.0
2016-Feb-10 11:32N 35°24' E 139°39'0 0.0
2016-Feb-10 10:26N 35°24' E 139°39'0 0.0
2016-Feb-10 09:32N 35°24' E 139°39'0 0.0
2016-Feb-10 08:32N 35°24' E 139°39'0 0.0
2016-Feb-10 07:32N 35°24' E 139°39'0 0.1
2016-Feb-10 06:33N 35°24' E 139°38'1 1.3
2016-Feb-10 05:32N 35°24' E 139°40'0 0.0
2016-Feb-10 04:32N 35°24' E 139°40'0 0.0
2016-Feb-10 03:32N 35°24' E 139°40'0 0.0
2016-Feb-10 02:31N 35°24' E 139°40'0 0.0
2016-Feb-10 01:32N 35°24' E 139°40'0 0.0
2016-Feb-10 00:32N 35°24' E 139°40'1 1.4
2016-Feb-09 23:34N 35°23' E 139°41'3 2.2
2016-Feb-09 22:26N 35°23' E 139°44'0 0.0
2016-Feb-09 21:32N 35°23' E 139°44'0 0.0
2016-Feb-09 20:32N 35°23' E 139°44'0 0.0
2016-Feb-09 19:32N 35°23' E 139°44'0 0.1
2016-Feb-09 18:32N 35°23' E 139°44'0 0.0
2016-Feb-09 17:32N 35°23' E 139°44'0 0.0
2016-Feb-09 16:32N 35°23' E 139°44'0 0.1
2016-Feb-09 15:32N 35°23' E 139°44'0 0.0
2016-Feb-09 14:32N 35°23' E 139°44'0 0.0
2016-Feb-09 13:32N 35°23' E 139°44'0 0.0
2016-Feb-09 12:32N 35°23' E 139°44'0 0.0
2016-Feb-09 11:32N 35°23' E 139°44'0 0.0
2016-Feb-09 10:32N 35°23' E 139°44'0 0.0
2016-Feb-09 09:29N 35°23' E 139°44'0 0.1
2016-Feb-09 08:32N 35°23' E 139°44'0 0.0
2016-Feb-09 07:30N 35°23' E 139°44'0 0.1
2016-Feb-09 06:33N 35°23' E 139°44'5 4.3
2016-Feb-09 05:28N 35°24' E 139°39'0 0.0
2016-Feb-09 04:31N 35°24' E 139°39'0 0.0
2016-Feb-09 03:31N 35°24' E 139°39'0 0.0
2016-Feb-09 02:31N 35°24' E 139°39'0 0.0
2016-Feb-09 01:31N 35°24' E 139°39'0 0.0
2016-Feb-09 00:31N 35°24' E 139°39'0 0.0
2016-Feb-08 23:25N 35°24' E 139°39'0 0.0
2016-Feb-08 22:31N 35°24' E 139°39'0 0.0
2016-Feb-08 21:31N 35°24' E 139°39'0 0.0
2016-Feb-08 20:31N 35°24' E 139°39'0 0.0
2016-Feb-08 19:31N 35°24' E 139°39'0 0.0
2016-Feb-08 18:31N 35°24' E 139°39'0 0.0
2016-Feb-08 17:31N 35°24' E 139°39'0 0.0
2016-Feb-08 16:31N 35°24' E 139°39'0 0.0
2016-Feb-08 15:31N 35°24' E 139°39'0 0.0
2016-Feb-08 14:31N 35°24' E 139°39'0 0.0
2016-Feb-08 13:31N 35°24' E 139°39'0 0.0
2016-Feb-08 12:31N 35°24' E 139°39'0 0.0
2016-Feb-08 11:25N 35°24' E 139°39'0 0.0
2016-Feb-08 10:31N 35°24' E 139°39'0 0.0
2016-Feb-08 09:31N 35°24' E 139°39'0 0.0
2016-Feb-08 08:31N 35°24' E 139°39'0 0.0
2016-Feb-08 07:28N 35°24' E 139°39'0 0.1
2016-Feb-08 06:33N 35°24' E 139°38'8 7.8
2016-Feb-08 05:33N 35°28' E 139°47'3 3.4
2016-Feb-08 04:33N 35°30' E 139°43'0 0.0
2016-Feb-08 03:33N 35°30' E 139°43'0 0.0
2016-Feb-08 02:33N 35°30' E 139°43'0 0.0
2016-Feb-08 01:33N 35°30' E 139°43'0 0.0
2016-Feb-08 00:33N 35°30' E 139°43'0 0.0
2016-Feb-07 23:33N 35°30' E 139°43'0 0.1
2016-Feb-07 22:33N 35°30' E 139°43'5 5.4
2016-Feb-07 21:33N 35°25' E 139°45'2 2.4
2016-Feb-07 20:32N 35°23' E 139°44'0 0.0
2016-Feb-07 19:32N 35°23' E 139°44'0 0.0
2016-Feb-07 18:32N 35°23' E 139°44'0 0.1
2016-Feb-07 17:32N 35°23' E 139°44'0 0.0
2016-Feb-07 16:32N 35°23' E 139°44'0 0.1
2016-Feb-07 15:32N 35°23' E 139°44'0 0.0
2016-Feb-07 14:32N 35°23' E 139°44'0 0.0
2016-Feb-07 13:32N 35°23' E 139°44'0 0.0
2016-Feb-07 12:32N 35°23' E 139°44'0 0.0
2016-Feb-07 11:32N 35°23' E 139°44'4 4.5
2016-Feb-07 10:33N 35°24' E 139°39'0 0.2
2016-Feb-07 09:32N 35°24' E 139°39'0 0.0
2016-Feb-07 08:32N 35°24' E 139°39'0 0.0
2016-Feb-07 07:32N 35°24' E 139°39'0 0.0
2016-Feb-07 06:32N 35°24' E 139°39'0 0.0
2016-Feb-07 05:32N 35°24' E 139°39'0 0.0
2016-Feb-07 04:33N 35°24' E 139°39'1 1.2
2016-Feb-07 03:33N 35°24' E 139°40'0 0.0
2016-Feb-07 02:33N 35°24' E 139°40'0 0.0
2016-Feb-07 01:33N 35°24' E 139°40'0 0.0
2016-Feb-07 00:33N 35°24' E 139°40'0 0.0
2016-Feb-06 23:33N 35°24' E 139°40'0 0.0
2016-Feb-06 22:33N 35°24' E 139°40'2 1.9
2016-Feb-06 21:33N 35°23' E 139°42'2 1.9
2016-Feb-06 20:33N 35°22' E 139°44'0 0.0
2016-Feb-06 19:33N 35°22' E 139°44'0 0.0
2016-Feb-06 18:33N 35°22' E 139°44'0 0.1
2016-Feb-06 17:33N 35°22' E 139°44'0 0.1
2016-Feb-06 16:33N 35°22' E 139°44'0 0.0
2016-Feb-06 15:33N 35°22' E 139°44'0 0.0
2016-Feb-06 14:33N 35°22' E 139°44'0 0.0
2016-Feb-06 13:33N 35°22' E 139°44'0 0.1
2016-Feb-06 12:33N 35°22' E 139°44'0 0.0
2016-Feb-06 11:33N 35°22' E 139°44'0 0.1
2016-Feb-06 10:33N 35°22' E 139°44'0 0.0
2016-Feb-06 09:33N 35°22' E 139°44'0 0.1
2016-Feb-06 08:33N 35°22' E 139°44'0 0.0
2016-Feb-06 07:33N 35°22' E 139°44'0 0.0
2016-Feb-06 06:30N 35°22' E 139°44'0 0.1
2016-Feb-06 05:33N 35°22' E 139°44'0 0.0
2016-Feb-06 04:33N 35°22' E 139°44'5 4.6
2016-Feb-06 03:33N 35°24' E 139°39'0 0.0
2016-Feb-06 02:31N 35°24' E 139°39'0 0.0
2016-Feb-06 01:31N 35°24' E 139°39'0 0.0
2016-Feb-06 00:31N 35°24' E 139°39'0 0.0
2016-Feb-05 23:31N 35°24' E 139°39'0 0.0
2016-Feb-05 22:31N 35°24' E 139°39'0 0.0
2016-Feb-05 21:31N 35°24' E 139°39'0 0.0
2016-Feb-05 20:31N 35°24' E 139°39'0 0.0
2016-Feb-05 19:31N 35°24' E 139°39'0 0.0
2016-Feb-05 18:31N 35°24' E 139°39'0 0.0
2016-Feb-05 17:31N 35°24' E 139°39'0 0.0
2016-Feb-05 16:31N 35°24' E 139°39'0 0.0
2016-Feb-05 15:31N 35°24' E 139°39'0 0.0
2016-Feb-05 14:31N 35°24' E 139°39'0 0.0
2016-Feb-05 13:31N 35°24' E 139°39'2 2.0
2016-Feb-05 12:33N 35°23' E 139°41'10 9.7
2016-Feb-05 11:33N 35°29' E 139°50'7 5.6
2016-Feb-05 10:24N 35°27' E 139°58'0 0.0
2016-Feb-05 09:33N 35°27' E 139°58'0 0.0
2016-Feb-05 08:30N 35°27' E 139°58'0 0.0
2016-Feb-05 07:30N 35°27' E 139°58'0 0.0
2016-Feb-05 06:30N 35°27' E 139°58'1 1.1
2016-Feb-05 05:33N 35°28' E 139°58'1211.6
2016-Feb-05 04:34N 35°25' E 139°44'5 4.6
2016-Feb-05 03:33N 35°24' E 139°39'0 0.0
2016-Feb-05 02:33N 35°24' E 139°39'0 0.0
2016-Feb-05 01:33N 35°24' E 139°39'0 0.0
2016-Feb-05 00:30N 35°24' E 139°39'0 0.0
2016-Feb-04 23:33N 35°24' E 139°39'0 0.0
2016-Feb-04 22:33N 35°24' E 139°39'0 0.0
2016-Feb-04 21:33N 35°24' E 139°39'0 0.0
2016-Feb-04 20:33N 35°24' E 139°39'0 0.0
2016-Feb-04 19:33N 35°24' E 139°39'0 0.0
2016-Feb-04 18:33N 35°24' E 139°39'0 0.0
2016-Feb-04 17:33N 35°24' E 139°39'0 0.0
2016-Feb-04 16:33N 35°24' E 139°39'0 0.0
2016-Feb-04 15:33N 35°24' E 139°39'0 0.0
2016-Feb-04 14:33N 35°24' E 139°39'1 0.7
2016-Feb-04 13:33N 35°24' E 139°39'4 4.2
2016-Feb-04 12:33N 35°25' E 139°44'4 4.2
2016-Feb-04 11:33N 35°30' E 139°43'0 0.3
2016-Feb-04 10:33N 35°30' E 139°43'0 0.0
2016-Feb-04 09:33N 35°30' E 139°43'0 0.0
2016-Feb-04 08:33N 35°30' E 139°43'0 0.0
2016-Feb-04 07:33N 35°30' E 139°43'0 0.0
2016-Feb-04 06:33N 35°30' E 139°43'0 0.0
2016-Feb-04 05:33N 35°30' E 139°43'4 3.6
2016-Feb-04 04:33N 35°26' E 139°44'5 4.7
2016-Feb-04 03:34N 35°24' E 139°39'0 0.0
2016-Feb-04 02:31N 35°24' E 139°39'0 0.0
2016-Feb-04 01:31N 35°24' E 139°39'0 0.0
2016-Feb-04 00:34N 35°24' E 139°39'0 0.0
2016-Feb-03 23:31N 35°24' E 139°39'0 0.0
2016-Feb-03 22:25N 35°24' E 139°39'0 0.0
2016-Feb-03 21:34N 35°24' E 139°39'0 0.0
2016-Feb-03 20:34N 35°24' E 139°39'0 0.0
2016-Feb-03 19:33N 35°24' E 139°39'0 0.0
2016-Feb-03 18:34N 35°24' E 139°39'0 0.0
2016-Feb-03 17:33N 35°24' E 139°39'0 0.0
2016-Feb-03 16:33N 35°24' E 139°39'  
Track history (hours):
 
Tides and Currents Weather Stations Pressure Air Temp Water Temp Dewpoint Dewpoint Depression Visibility Wind Speed Wind Dir Waves Ship Positions

Jp Tsubaki

Last reported at 2016-Feb-13 16:31 UTC. Time now 2016-Feb-13 17:13 UTC.
Position N 35°31' E 139°55'.

Length 115 m; draft 6.4 m.

Type: Cargo ship. MMSI: 431000734.

Date/timePositionNaut miles runAvg speedWind from/ knotsBaromVisibWave heightAir tempDewpointWater temp
2016-Feb-13 16:31N 35°31' E 139°55'0 0.0
2016-Feb-13 15:28N 35°31' E 139°55'0 0.0
2016-Feb-13 14:32N 35°31' E 139°55'0 0.0
2016-Feb-13 13:32N 35°31' E 139°55'0 0.0
2016-Feb-13 12:33N 35°31' E 139°55'1 1.3
2016-Feb-13 11:33N 35°30' E 139°54'1212.0
2016-Feb-13 10:33N 35°24' E 139°42'1 1.4
2016-Feb-13 09:32N 35°24' E 139°40'0 0.0
2016-Feb-13 08:32N 35°24' E 139°40'0 0.0
2016-Feb-13 07:29N 35°24' E 139°40'0 0.0
2016-Feb-13 06:32N 35°24' E 139°40'0 0.0
2016-Feb-13 05:32N 35°24' E 139°40'0 0.1
2016-Feb-13 04:33N 35°24' E 139°40'1 1.2
2016-Feb-13 03:32N 35°24' E 139°39'0 0.0
2016-Feb-13 02:32N 35°24' E 139°39'0 0.0
2016-Feb-13 01:32N 35°24' E 139°39'0 0.0
2016-Feb-13 00:32N 35°24' E 139°39'0 0.0
2016-Feb-12 23:32N 35°24' E 139°39'0 0.0
2016-Feb-12 22:32N 35°24' E 139°39'0 0.0
2016-Feb-12 21:32N 35°24' E 139°39'0 0.0
2016-Feb-12 20:32N 35°24' E 139°39'0 0.0
2016-Feb-12 19:32N 35°24' E 139°39'0 0.0
2016-Feb-12 18:32N 35°24' E 139°39'0 0.0
2016-Feb-12 17:32N 35°24' E 139°39'0 0.0
2016-Feb-12 16:32N 35°24' E 139°39'0 0.0
2016-Feb-12 15:29N 35°24' E 139°39'0 0.0
2016-Feb-12 14:32N 35°24' E 139°39'0 0.0
2016-Feb-12 13:32N 35°24' E 139°39'0 0.0
2016-Feb-12 12:29N 35°24' E 139°39'0 0.0
2016-Feb-12 11:32N 35°24' E 139°39'0 0.0
2016-Feb-12 10:32N 35°24' E 139°39'0 0.0
2016-Feb-12 09:32N 35°24' E 139°39'0 0.0
2016-Feb-12 08:32N 35°24' E 139°39'0 0.0
2016-Feb-12 07:32N 35°24' E 139°39'0 0.0
2016-Feb-12 06:32N 35°24' E 139°39'0 0.0
2016-Feb-12 05:33N 35°24' E 139°39'1 0.8
2016-Feb-12 04:34N 35°24' E 139°39'1 0.7
2016-Feb-12 03:33N 35°24' E 139°40'0 0.0
2016-Feb-12 02:33N 35°24' E 139°40'0 0.0
2016-Feb-12 01:33N 35°24' E 139°40'0 0.0
2016-Feb-12 00:33N 35°24' E 139°40'0 0.0
2016-Feb-11 23:33N 35°24' E 139°40'0 0.0
2016-Feb-11 22:33N 35°24' E 139°40'2 2.0
2016-Feb-11 21:33N 35°23' E 139°42'2 2.0
2016-Feb-11 20:31N 35°23' E 139°45'0 0.1
2016-Feb-11 19:31N 35°23' E 139°45'0 0.1
2016-Feb-11 18:31N 35°23' E 139°45'0 0.0
2016-Feb-11 17:31N 35°23' E 139°45'0 0.0
2016-Feb-11 16:31N 35°23' E 139°45'0 0.0
2016-Feb-11 15:31N 35°23' E 139°45'0 0.0
2016-Feb-11 14:31N 35°23' E 139°45'0 0.0
2016-Feb-11 13:31N 35°23' E 139°45'5 5.3
2016-Feb-11 12:32N 35°24' E 139°39'0 0.0
2016-Feb-11 11:32N 35°24' E 139°39'0 0.0
2016-Feb-11 10:32N 35°24' E 139°39'0 0.0
2016-Feb-11 09:32N 35°24' E 139°39'0 0.0
2016-Feb-11 08:32N 35°24' E 139°39'0 0.0
2016-Feb-11 07:29N 35°24' E 139°39'0 0.0
2016-Feb-11 06:33N 35°24' E 139°39'7 7.2
2016-Feb-11 05:33N 35°27' E 139°46'4 3.5
2016-Feb-11 04:33N 35°30' E 139°43'0 0.0
2016-Feb-11 03:33N 35°30' E 139°43'0 0.0
2016-Feb-11 02:33N 35°30' E 139°43'0 0.0
2016-Feb-11 01:33N 35°30' E 139°43'0 0.0
2016-Feb-11 00:33N 35°30' E 139°43'0 0.0
2016-Feb-10 23:33N 35°30' E 139°43'0 0.0
2016-Feb-10 22:33N 35°30' E 139°43'5 5.2
2016-Feb-10 21:34N 35°25' E 139°44'2 2.0
2016-Feb-10 20:32N 35°23' E 139°44'0 0.0
2016-Feb-10 19:33N 35°23' E 139°44'0 0.0
2016-Feb-10 18:33N 35°23' E 139°44'0 0.0
2016-Feb-10 17:32N 35°23' E 139°44'0 0.0
2016-Feb-10 16:33N 35°23' E 139°44'0 0.0
2016-Feb-10 15:32N 35°23' E 139°44'0 0.0
2016-Feb-10 14:32N 35°23' E 139°44'0 0.0
2016-Feb-10 13:33N 35°23' E 139°44'4 4.5
2016-Feb-10 12:33N 35°24' E 139°39'0 0.0
2016-Feb-10 11:32N 35°24' E 139°39'0 0.0
2016-Feb-10 10:26N 35°24' E 139°39'0 0.0
2016-Feb-10 09:32N 35°24' E 139°39'0 0.0
2016-Feb-10 08:32N 35°24' E 139°39'0 0.0
2016-Feb-10 07:32N 35°24' E 139°39'0 0.1
2016-Feb-10 06:33N 35°24' E 139°38'1 1.3
2016-Feb-10 05:32N 35°24' E 139°40'0 0.0
2016-Feb-10 04:32N 35°24' E 139°40'0 0.0
2016-Feb-10 03:32N 35°24' E 139°40'0 0.0
2016-Feb-10 02:31N 35°24' E 139°40'0 0.0
2016-Feb-10 01:32N 35°24' E 139°40'0 0.0
2016-Feb-10 00:32N 35°24' E 139°40'1 1.4
2016-Feb-09 23:34N 35°23' E 139°41'3 2.2
2016-Feb-09 22:26N 35°23' E 139°44'0 0.0
2016-Feb-09 21:32N 35°23' E 139°44'0 0.0
2016-Feb-09 20:32N 35°23' E 139°44'0 0.0
2016-Feb-09 19:32N 35°23' E 139°44'0 0.1
2016-Feb-09 18:32N 35°23' E 139°44'0 0.0
2016-Feb-09 17:32N 35°23' E 139°44'0 0.0
2016-Feb-09 16:32N 35°23' E 139°44'0 0.1
2016-Feb-09 15:32N 35°23' E 139°44'0 0.0
2016-Feb-09 14:32N 35°23' E 139°44'0 0.0
2016-Feb-09 13:32N 35°23' E 139°44'0 0.0
2016-Feb-09 12:32N 35°23' E 139°44'0 0.0
2016-Feb-09 11:32N 35°23' E 139°44'0 0.0
2016-Feb-09 10:32N 35°23' E 139°44'0 0.0
2016-Feb-09 09:29N 35°23' E 139°44'0 0.1
2016-Feb-09 08:32N 35°23' E 139°44'0 0.0
2016-Feb-09 07:30N 35°23' E 139°44'0 0.1
2016-Feb-09 06:33N 35°23' E 139°44'5 4.3
2016-Feb-09 05:28N 35°24' E 139°39'0 0.0
2016-Feb-09 04:31N 35°24' E 139°39'0 0.0
2016-Feb-09 03:31N 35°24' E 139°39'0 0.0
2016-Feb-09 02:31N 35°24' E 139°39'0 0.0
2016-Feb-09 01:31N 35°24' E 139°39'0 0.0
2016-Feb-09 00:31N 35°24' E 139°39'0 0.0
2016-Feb-08 23:25N 35°24' E 139°39'0 0.0
2016-Feb-08 22:31N 35°24' E 139°39'0 0.0
2016-Feb-08 21:31N 35°24' E 139°39'0 0.0
2016-Feb-08 20:31N 35°24' E 139°39'0 0.0
2016-Feb-08 19:31N 35°24' E 139°39'0 0.0
2016-Feb-08 18:31N 35°24' E 139°39'0 0.0
2016-Feb-08 17:31N 35°24' E 139°39'0 0.0
2016-Feb-08 16:31N 35°24' E 139°39'0 0.0
2016-Feb-08 15:31N 35°24' E 139°39'0 0.0
2016-Feb-08 14:31N 35°24' E 139°39'0 0.0
2016-Feb-08 13:31N 35°24' E 139°39'0 0.0
2016-Feb-08 12:31N 35°24' E 139°39'0 0.0
2016-Feb-08 11:25N 35°24' E 139°39'0 0.0
2016-Feb-08 10:31N 35°24' E 139°39'0 0.0
2016-Feb-08 09:31N 35°24' E 139°39'0 0.0
2016-Feb-08 08:31N 35°24' E 139°39'0 0.0
2016-Feb-08 07:28N 35°24' E 139°39'0 0.1
2016-Feb-08 06:33N 35°24' E 139°38'8 7.8
2016-Feb-08 05:33N 35°28' E 139°47'3 3.4
2016-Feb-08 04:33N 35°30' E 139°43'0 0.0
2016-Feb-08 03:33N 35°30' E 139°43'0 0.0
2016-Feb-08 02:33N 35°30' E 139°43'0 0.0
2016-Feb-08 01:33N 35°30' E 139°43'0 0.0
2016-Feb-08 00:33N 35°30' E 139°43'0 0.0
2016-Feb-07 23:33N 35°30' E 139°43'0 0.1
2016-Feb-07 22:33N 35°30' E 139°43'5 5.4
2016-Feb-07 21:33N 35°25' E 139°45'2 2.4
2016-Feb-07 20:32N 35°23' E 139°44'0 0.0
2016-Feb-07 19:32N 35°23' E 139°44'0 0.0
2016-Feb-07 18:32N 35°23' E 139°44'0 0.1
2016-Feb-07 17:32N 35°23' E 139°44'0 0.0
2016-Feb-07 16:32N 35°23' E 139°44'0 0.1
2016-Feb-07 15:32N 35°23' E 139°44'0 0.0
2016-Feb-07 14:32N 35°23' E 139°44'0 0.0
2016-Feb-07 13:32N 35°23' E 139°44'0 0.0
2016-Feb-07 12:32N 35°23' E 139°44'0 0.0
2016-Feb-07 11:32N 35°23' E 139°44'4 4.5
2016-Feb-07 10:33N 35°24' E 139°39'0 0.2
2016-Feb-07 09:32N 35°24' E 139°39'0 0.0
2016-Feb-07 08:32N 35°24' E 139°39'0 0.0
2016-Feb-07 07:32N 35°24' E 139°39'0 0.0
2016-Feb-07 06:32N 35°24' E 139°39'0 0.0
2016-Feb-07 05:32N 35°24' E 139°39'0 0.0
2016-Feb-07 04:33N 35°24' E 139°39'1 1.2
2016-Feb-07 03:33N 35°24' E 139°40'0 0.0
2016-Feb-07 02:33N 35°24' E 139°40'0 0.0
2016-Feb-07 01:33N 35°24' E 139°40'0 0.0
2016-Feb-07 00:33N 35°24' E 139°40'0 0.0
2016-Feb-06 23:33N 35°24' E 139°40'0 0.0
2016-Feb-06 22:33N 35°24' E 139°40'2 1.9
2016-Feb-06 21:33N 35°23' E 139°42'2 1.9
2016-Feb-06 20:33N 35°22' E 139°44'0 0.0
2016-Feb-06 19:33N 35°22' E 139°44'0 0.0
2016-Feb-06 18:33N 35°22' E 139°44'0 0.1
2016-Feb-06 17:33N 35°22' E 139°44'0 0.1
2016-Feb-06 16:33N 35°22' E 139°44'0 0.0
2016-Feb-06 15:33N 35°22' E 139°44'0 0.0
2016-Feb-06 14:33N 35°22' E 139°44'0 0.0
2016-Feb-06 13:33N 35°22' E 139°44'0 0.1
2016-Feb-06 12:33N 35°22' E 139°44'0 0.0
2016-Feb-06 11:33N 35°22' E 139°44'0 0.1
2016-Feb-06 10:33N 35°22' E 139°44'0 0.0
2016-Feb-06 09:33N 35°22' E 139°44'0 0.1
2016-Feb-06 08:33N 35°22' E 139°44'0 0.0
2016-Feb-06 07:33N 35°22' E 139°44'0 0.0
2016-Feb-06 06:30N 35°22' E 139°44'0 0.1
2016-Feb-06 05:33N 35°22' E 139°44'0 0.0
2016-Feb-06 04:33N 35°22' E 139°44'5 4.6
2016-Feb-06 03:33N 35°24' E 139°39'0 0.0
2016-Feb-06 02:31N 35°24' E 139°39'0 0.0
2016-Feb-06 01:31N 35°24' E 139°39'0 0.0
2016-Feb-06 00:31N 35°24' E 139°39'0 0.0
2016-Feb-05 23:31N 35°24' E 139°39'0 0.0
2016-Feb-05 22:31N 35°24' E 139°39'0 0.0
2016-Feb-05 21:31N 35°24' E 139°39'0 0.0
2016-Feb-05 20:31N 35°24' E 139°39'0 0.0
2016-Feb-05 19:31N 35°24' E 139°39'0 0.0
2016-Feb-05 18:31N 35°24' E 139°39'0 0.0
2016-Feb-05 17:31N 35°24' E 139°39'0 0.0
2016-Feb-05 16:31N 35°24' E 139°39'0 0.0
2016-Feb-05 15:31N 35°24' E 139°39'0 0.0
2016-Feb-05 14:31N 35°24' E 139°39'0 0.0
2016-Feb-05 13:31N 35°24' E 139°39'2 2.0
2016-Feb-05 12:33N 35°23' E 139°41'10 9.7
2016-Feb-05 11:33N 35°29' E 139°50'7 5.6
2016-Feb-05 10:24N 35°27' E 139°58'0 0.0
2016-Feb-05 09:33N 35°27' E 139°58'0 0.0
2016-Feb-05 08:30N 35°27' E 139°58'0 0.0
2016-Feb-05 07:30N 35°27' E 139°58'0 0.0
2016-Feb-05 06:30N 35°27' E 139°58'1 1.1
2016-Feb-05 05:33N 35°28' E 139°58'1211.6
2016-Feb-05 04:34N 35°25' E 139°44'5 4.6
2016-Feb-05 03:33N 35°24' E 139°39'0 0.0
2016-Feb-05 02:33N 35°24' E 139°39'0 0.0
2016-Feb-05 01:33N 35°24' E 139°39'0 0.0
2016-Feb-05 00:30N 35°24' E 139°39'0 0.0
2016-Feb-04 23:33N 35°24' E 139°39'0 0.0
2016-Feb-04 22:33N 35°24' E 139°39'0 0.0
2016-Feb-04 21:33N 35°24' E 139°39'0 0.0
2016-Feb-04 20:33N 35°24' E 139°39'0 0.0
2016-Feb-04 19:33N 35°24' E 139°39'0 0.0
2016-Feb-04 18:33N 35°24' E 139°39'0 0.0
2016-Feb-04 17:33N 35°24' E 139°39'0 0.0
2016-Feb-04 16:33N 35°24' E 139°39'0 0.0
2016-Feb-04 15:33N 35°24' E 139°39'0 0.0
2016-Feb-04 14:33N 35°24' E 139°39'1 0.7
2016-Feb-04 13:33N 35°24' E 139°39'4 4.2
2016-Feb-04 12:33N 35°25' E 139°44'4 4.2
2016-Feb-04 11:33N 35°30' E 139°43'0 0.3
2016-Feb-04 10:33N 35°30' E 139°43'0 0.0
2016-Feb-04 09:33N 35°30' E 139°43'0 0.0
2016-Feb-04 08:33N 35°30' E 139°43'0 0.0
2016-Feb-04 07:33N 35°30' E 139°43'0 0.0
2016-Feb-04 06:33N 35°30' E 139°43'0 0.0
2016-Feb-04 05:33N 35°30' E 139°43'4 3.6
2016-Feb-04 04:33N 35°26' E 139°44'5 4.7
2016-Feb-04 03:34N 35°24' E 139°39'0 0.0
2016-Feb-04 02:31N 35°24' E 139°39'0 0.0
2016-Feb-04 01:31N 35°24' E 139°39'0 0.0
2016-Feb-04 00:34N 35°24' E 139°39'0 0.0
2016-Feb-03 23:31N 35°24' E 139°39'0 0.0
2016-Feb-03 22:25N 35°24' E 139°39'0 0.0
2016-Feb-03 21:34N 35°24' E 139°39'0 0.0
2016-Feb-03 20:34N 35°24' E 139°39'0 0.0
2016-Feb-03 19:33N 35°24' E 139°39'0 0.0
2016-Feb-03 18:34N 35°24' E 139°39'0 0.0
2016-Feb-03 17:33N 35°24' E 139°39'0 0.0
2016-Feb-03 16:33N 35°24' E 139°39'  

Dump ship's entire track history